Startpagina
METAR-TAF:

METAR-TAF

Vliegvelden :

Geilenkirchen, Duitsland

breedte: 50-57-39N, lengte: 006-2-33E, hoogte: 90 m

Actueel weer

Dit bericht is 35 minuten geleden gemaakt, om 19:50 UTC
Wind 8 kt uit het zuidwesten
Temperatuur 6°C
Vochtigheid 93%
Druk 1024 hPa
Zicht 10 km of meer
Weinig wolken op 2300 ft

METAR: ETNG 171950Z 22008KT 9999 FEW023 06/05 Q1024 NOSIG

Tijdstip: 21:25 (20:25 UTC)

Verwachting

Dit bericht is 2 uur en het 35 minuten geleden gemaakt, om 17:50 UTC
Verwachting geldig van 17 om 18 UTC tot 18 om 09 UTC
Wind 10 kt uit het zuidzuidwesten met uitschieters tot 17 kt
Zicht 10 km of meer
Gebroken wolken op 2000 ft
Wijzigt naar
van 17 om 20 UTC tot 17 om 22 UTC
Wind 8 kt uit het zuiden
Gebroken wolken op 800 ft
Wijzigt naar
van 18 om 06 UTC tot 18 om 09 UTC

TAF: ETNG 171750Z 1718/1809 21010G17KT 9999 BKN020 BECMG 1720/1722 18008KT BKN008 BECMG 1806/1809 NSC

Waarnemingen en weersverwachtingen van meer dan 4000 vliegvelden (METAR en TAF).

De beschikbare stations zijn de gele en rode punten op de kaart.

Ga met uw muis naar het station om de naam te zien.

Klik dan om waarnemingen en weersverwachtingen te zien.

kaart wijzigen: klik op de groene knoppen met een zwart kruis om in te zoomen, op de groene knop met een streepje om uit te zoomen of op de groene pijlen voor aangrenzende kaarten.


METAR-TAF: